Terminal Aerodrome Forecast
Issued by NWS

Home | Current Version | Previous Version | Text Only | Print | Product List | Glossary On
Versions: 1 2 3 4 5 6 7 8 9 10 11 12 13 14 15 16 17 18 19 20 21 22 23
000
FTUS43 KDTX 021700
TAFDET
TAF
KDET 021720Z 0218/0318 23010KT P6SM SCT050 OVC080
      TEMPO 0218/0222 3SM -RA BKN010
     FM030100 22005KT P6SM SCT070
     FM031500 20008KT P6SM SKC=

USA.gov is the U.S. government's official web portal to all federal, state and local government web resources and services.